sensor_id;sensor_type;location;lat;lon;timestamp;pressure;altitude;pressure_sealevel;temperature;humidity
44148;BME280;29810;55.848;37.368;2022-10-18T00:01:28;99691.66;;;7.45;98.56
44148;BME280;29810;55.848;37.368;2022-10-18T00:04:30;99681.28;;;7.45;98.06
44148;BME280;29810;55.848;37.368;2022-10-18T00:07:32;99682.91;;;7.53;97.86
44148;BME280;29810;55.848;37.368;2022-10-18T00:10:33;99680.31;;;7.53;97.33
44148;BME280;29810;55.848;37.368;2022-10-18T00:13:35;99676.78;;;7.55;97.25
44148;BME280;29810;55.848;37.368;2022-10-18T00:16:37;99679.34;;;7.58;96.84
44148;BME280;29810;55.848;37.368;2022-10-18T00:19:39;99660.19;;;7.66;96.82
44148;BME280;29810;55.848;37.368;2022-10-18T00:22:41;99661.84;;;7.70;96.25
44148;BME280;29810;55.848;37.368;2022-10-18T00:25:42;99656.75;;;7.65;95.52
44148;BME280;29810;55.848;37.368;2022-10-18T00:28:44;99654.94;;;7.69;95.59
44148;BME280;29810;55.848;37.368;2022-10-18T00:31:46;99644.66;;;7.62;95.39
44148;BME280;29810;55.848;37.368;2022-10-18T00:34:48;99636.09;;;7.57;95.30
44148;BME280;29810;55.848;37.368;2022-10-18T00:37:49;99638.69;;;7.59;95.27
44148;BME280;29810;55.848;37.368;2022-10-18T00:40:51;99630.16;;;7.52;95.27
44148;BME280;29810;55.848;37.368;2022-10-18T00:47:08;99628.44;;;7.51;95.36
44148;BME280;29810;55.848;37.368;2022-10-18T00:50:10;99630.34;;;7.41;95.52
44148;BME280;29810;55.848;37.368;2022-10-18T00:53:15;99632.97;;;7.40;95.70
44148;BME280;29810;55.848;37.368;2022-10-18T00:56:18;99605.44;;;7.31;95.79
44148;BME280;29810;55.848;37.368;2022-10-18T00:59:21;99605.50;;;7.26;95.79
44148;BME280;29810;55.848;37.368;2022-10-18T01:02:24;99609.03;;;7.22;95.98
44148;BME280;29810;55.848;37.368;2022-10-18T01:05:26;99615.31;;;7.09;96.58
44148;BME280;29810;55.848;37.368;2022-10-18T01:32:24;99608.38;;;7.11;97.09
44148;BME280;29810;55.848;37.368;2022-10-18T01:35:32;99607.22;;;7.27;96.87
44148;BME280;29810;55.848;37.368;2022-10-18T01:38:35;99591.91;;;7.12;95.89
44148;BME280;29810;55.848;37.368;2022-10-18T01:41:40;99596.09;;;7.21;95.91
44148;BME280;29810;55.848;37.368;2022-10-18T01:44:43;99599.63;;;7.17;95.69
44148;BME280;29810;55.848;37.368;2022-10-18T01:47:46;99592.59;;;7.23;95.68
44148;BME280;29810;55.848;37.368;2022-10-18T01:50:48;99579.56;;;7.28;95.57
44148;BME280;29810;55.848;37.368;2022-10-18T01:53:50;99581.34;;;7.24;95.25
44148;BME280;29810;55.848;37.368;2022-10-18T01:57:14;99576.97;;;7.26;95.32
44148;BME280;29810;55.848;37.368;2022-10-18T02:00:22;99567.28;;;7.38;95.33
44148;BME280;29810;55.848;37.368;2022-10-18T02:03:26;99577.66;;;7.38;95.02
44148;BME280;29810;55.848;37.368;2022-10-18T02:06:34;99565.53;;;7.38;94.64
44148;BME280;29810;55.848;37.368;2022-10-18T02:09:43;99561.25;;;7.36;94.45
44148;BME280;29810;55.848;37.368;2022-10-18T02:12:47;99566.41;;;7.39;94.57
44148;BME280;29810;55.848;37.368;2022-10-18T02:15:56;99561.28;;;7.34;94.24
44148;BME280;29810;55.848;37.368;2022-10-18T02:19:27;99551.06;;;7.25;94.26
44148;BME280;29810;55.848;37.368;2022-10-18T02:22:31;99565.59;;;7.35;94.45
44148;BME280;29810;55.848;37.368;2022-10-18T02:25:34;99557.84;;;7.34;94.28
44148;BME280;29810;55.848;37.368;2022-10-18T02:28:36;99550.13;;;7.31;94.13
44148;BME280;29810;55.848;37.368;2022-10-18T02:31:52;99546.69;;;7.28;94.12
44148;BME280;29810;55.848;37.368;2022-10-18T02:38:22;99526.78;;;7.31;94.04
44148;BME280;29810;55.848;37.368;2022-10-18T02:41:26;99530.25;;;7.29;93.78
44148;BME280;29810;55.848;37.368;2022-10-18T02:44:27;99528.56;;;7.27;93.67
44148;BME280;29810;55.848;37.368;2022-10-18T02:47:29;99524.28;;;7.24;93.74
44148;BME280;29810;55.848;37.368;2022-10-18T02:50:30;99509.72;;;7.17;93.90
44148;BME280;29810;55.848;37.368;2022-10-18T02:53:32;99511.50;;;7.15;94.04
44148;BME280;29810;55.848;37.368;2022-10-18T02:56:34;99511.47;;;7.17;94.20
44148;BME280;29810;55.848;37.368;2022-10-18T02:59:36;99489.00;;;7.16;94.17
44148;BME280;29810;55.848;37.368;2022-10-18T03:02:37;99492.47;;;7.16;94.13
44148;BME280;29810;55.848;37.368;2022-10-18T03:05:39;99482.16;;;7.11;94.16
44148;BME280;29810;55.848;37.368;2022-10-18T03:08:40;99486.44;;;7.14;94.07
44148;BME280;29810;55.848;37.368;2022-10-18T03:11:42;99486.62;;;7.05;94.22
44148;BME280;29810;55.848;37.368;2022-10-18T03:14:43;99479.72;;;7.04;94.49
44148;BME280;29810;55.848;37.368;2022-10-18T03:17:45;99474.59;;;7.01;94.63
44148;BME280;29810;55.848;37.368;2022-10-18T03:20:46;99467.66;;;7.01;94.76
44148;BME280;29810;55.848;37.368;2022-10-18T03:23:48;99462.53;;;6.98;94.79
44148;BME280;29810;55.848;37.368;2022-10-18T03:26:49;99447.06;;;6.93;94.83
44148;BME280;29810;55.848;37.368;2022-10-18T03:29:51;99451.44;;;6.91;94.91
44148;BME280;29810;55.848;37.368;2022-10-18T03:32:52;99451.50;;;6.87;95.17
44148;BME280;29810;55.848;37.368;2022-10-18T03:35:57;99443.88;;;6.79;95.42
44148;BME280;29810;55.848;37.368;2022-10-18T03:38:58;99424.97;;;6.72;95.72
44148;BME280;29810;55.848;37.368;2022-10-18T03:42:01;99432.81;;;6.68;96.01
44148;BME280;29810;55.848;37.368;2022-10-18T03:45:03;99429.47;;;6.62;96.37
44148;BME280;29810;55.848;37.368;2022-10-18T03:48:06;99418.34;;;6.57;96.48
44148;BME280;29810;55.848;37.368;2022-10-18T03:51:07;99415.75;;;6.56;96.66
44148;BME280;29810;55.848;37.368;2022-10-18T03:54:09;99371.28;;;6.32;96.85
44148;BME280;29810;55.848;37.368;2022-10-18T03:57:10;99408.09;;;6.51;97.16
44148;BME280;29810;55.848;37.368;2022-10-18T04:00:12;99408.94;;;6.52;97.26
44148;BME280;29810;55.848;37.368;2022-10-18T04:03:13;99395.03;;;6.57;97.30
44148;BME280;29810;55.848;37.368;2022-10-18T04:06:15;99390.59;;;6.62;97.08
44148;BME280;29810;55.848;37.368;2022-10-18T04:09:16;99382.69;;;6.70;96.92
44148;BME280;29810;55.848;37.368;2022-10-18T04:12:18;99381.75;;;6.76;96.59
44148;BME280;29810;55.848;37.368;2022-10-18T04:15:19;99378.19;;;6.80;96.32
44148;BME280;29810;55.848;37.368;2022-10-18T04:18:21;99374.59;;;6.87;96.16
44148;BME280;29810;55.848;37.368;2022-10-18T04:21:22;99371.00;;;6.94;95.76
44148;BME280;29810;55.848;37.368;2022-10-18T04:24:24;99369.94;;;7.05;95.66
44148;BME280;29810;55.848;37.368;2022-10-18T04:27:25;99362.06;;;7.11;95.34
44148;BME280;29810;55.848;37.368;2022-10-18T04:30:27;99351.78;;;7.06;94.67
44148;BME280;29810;55.848;37.368;2022-10-18T04:33:28;99352.75;;;7.01;94.68
44148;BME280;29810;55.848;37.368;2022-10-18T04:36:30;99352.59;;;7.07;95.07
44148;BME280;29810;55.848;37.368;2022-10-18T04:39:31;99349.06;;;7.12;94.89
44148;BME280;29810;55.848;37.368;2022-10-18T04:42:33;99350.59;;;7.21;94.66
44148;BME280;29810;55.848;37.368;2022-10-18T04:45:34;99330.50;;;7.31;94.34
44148;BME280;29810;55.848;37.368;2022-10-18T04:48:36;99330.37;;;7.37;93.91
44148;BME280;29810;55.848;37.368;2022-10-18T04:51:38;99331.91;;;7.46;93.58
44148;BME280;29810;55.848;37.368;2022-10-18T04:54:39;99328.38;;;7.50;93.27
44148;BME280;29810;55.848;37.368;2022-10-18T04:57:40;99328.16;;;7.59;92.98
44148;BME280;29810;55.848;37.368;2022-10-18T05:00:43;99321.88;;;7.70;92.90
44148;BME280;29810;55.848;37.368;2022-10-18T05:03:51;99324.25;;;7.79;92.61
44148;BME280;29810;55.848;37.368;2022-10-18T05:06:55;99317.22;;;7.84;91.95
44148;BME280;29810;55.848;37.368;2022-10-18T05:09:56;99313.78;;;7.82;91.65
44148;BME280;29810;55.848;37.368;2022-10-18T05:12:58;99329.19;;;7.90;91.23
44148;BME280;29810;55.848;37.368;2022-10-18T05:16:00;99328.53;;;7.80;91.06
44148;BME280;29810;55.848;37.368;2022-10-18T05:19:04;99327.72;;;7.78;90.67
44148;BME280;29810;55.848;37.368;2022-10-18T05:22:05;99341.94;;;7.61;91.23
44148;BME280;29810;55.848;37.368;2022-10-18T05:25:08;99348.97;;;7.56;91.60
44148;BME280;29810;55.848;37.368;2022-10-18T05:28:09;99349.84;;;7.57;91.65
44148;BME280;29810;55.848;37.368;2022-10-18T05:31:11;99349.81;;;7.58;91.78
44148;BME280;29810;55.848;37.368;2022-10-18T05:34:12;99340.44;;;7.51;91.77
44148;BME280;29810;55.848;37.368;2022-10-18T05:37:14;99349.12;;;7.50;91.92
44148;BME280;29810;55.848;37.368;2022-10-18T05:40:16;99346.53;;;7.50;92.12
44148;BME280;29810;55.848;37.368;2022-10-18T05:43:17;99341.19;;;7.56;92.23
44148;BME280;29810;55.848;37.368;2022-10-18T05:46:19;99338.53;;;7.59;92.06
44148;BME280;29810;55.848;37.368;2022-10-18T05:49:20;99329.84;;;7.60;91.92
44148;BME280;29810;55.848;37.368;2022-10-18T05:52:22;99332.53;;;7.57;91.79
44148;BME280;29810;55.848;37.368;2022-10-18T05:55:23;99324.56;;;7.65;91.89
44148;BME280;29810;55.848;37.368;2022-10-18T05:58:25;99321.13;;;7.65;91.75
44148;BME280;29810;55.848;37.368;2022-10-18T06:01:26;99299.53;;;7.62;91.64
44148;BME280;29810;55.848;37.368;2022-10-18T06:04:28;99309.47;;;7.81;91.42
44148;BME280;29810;55.848;37.368;2022-10-18T06:07:29;99293.09;;;7.79;91.25
44148;BME280;29810;55.848;37.368;2022-10-18T06:10:34;99282.53;;;7.87;91.29
44148;BME280;29810;55.848;37.368;2022-10-18T06:13:42;99272.06;;;7.90;91.17
44148;BME280;29810;55.848;37.368;2022-10-18T06:16:44;99272.09;;;7.88;90.98
44148;BME280;29810;55.848;37.368;2022-10-18T06:19:45;99268.78;;;7.83;91.04
44148;BME280;29810;55.848;37.368;2022-10-18T06:22:47;99259.94;;;7.90;91.34
44148;BME280;29810;55.848;37.368;2022-10-18T06:25:48;99250.16;;;8.00;91.16
44148;BME280;29810;55.848;37.368;2022-10-18T06:28:50;99251.75;;;8.06;91.02
44148;BME280;29810;55.848;37.368;2022-10-18T06:31:51;99227.50;;;8.07;91.10
44148;BME280;29810;55.848;37.368;2022-10-18T06:34:52;99209.94;;;8.15;90.97
44148;BME280;29810;55.848;37.368;2022-10-18T06:37:54;99194.13;;;8.24;91.07
44148;BME280;29810;55.848;37.368;2022-10-18T06:40:56;99188.03;;;8.25;91.16
44148;BME280;29810;55.848;37.368;2022-10-18T06:43:59;99163.66;;;8.29;91.38
44148;BME280;29810;55.848;37.368;2022-10-18T06:47:07;99130.06;;;8.25;91.58
44148;BME280;29810;55.848;37.368;2022-10-18T06:50:08;99140.34;;;8.28;91.95
44148;BME280;29810;55.848;37.368;2022-10-18T06:53:11;99125.78;;;8.22;92.18
44148;BME280;29810;55.848;37.368;2022-10-18T06:56:13;99141.09;;;8.32;92.50
44148;BME280;29810;55.848;37.368;2022-10-18T06:59:14;99102.16;;;8.32;92.93
44148;BME280;29810;55.848;37.368;2022-10-18T07:02:16;99106.53;;;8.29;93.12
44148;BME280;29810;55.848;37.368;2022-10-18T07:05:18;99087.34;;;8.34;93.24
44148;BME280;29810;55.848;37.368;2022-10-18T07:08:19;99090.75;;;8.36;93.33
44148;BME280;29810;55.848;37.368;2022-10-18T07:11:23;99049.09;;;8.39;93.50
44148;BME280;29810;55.848;37.368;2022-10-18T07:14:25;99064.69;;;8.39;93.58
44148;BME280;29810;55.848;37.368;2022-10-18T07:17:27;99054.13;;;8.45;93.68
44148;BME280;29810;55.848;37.368;2022-10-18T07:20:28;99040.09;;;8.51;93.68
44148;BME280;29810;55.848;37.368;2022-10-18T07:23:32;99015.31;;;8.40;93.71
44148;BME280;29810;55.848;37.368;2022-10-18T07:26:34;99022.03;;;8.48;93.94
44148;BME280;29810;55.848;37.368;2022-10-18T07:29:36;99000.41;;;8.47;93.99
44148;BME280;29810;55.848;37.368;2022-10-18T07:32:41;98985.66;;;8.48;93.92
44148;BME280;29810;55.848;37.368;2022-10-18T07:35:42;98952.84;;;8.43;93.97
44148;BME280;29810;55.848;37.368;2022-10-18T07:38:44;98937.16;;;8.48;94.15
44148;BME280;29810;55.848;37.368;2022-10-18T07:41:45;98920.63;;;8.49;94.10
44148;BME280;29810;55.848;37.368;2022-10-18T07:44:47;98913.34;;;8.60;93.88
44148;BME280;29810;55.848;37.368;2022-10-18T07:47:56;98902.81;;;8.65;93.24
44148;BME280;29810;55.848;37.368;2022-10-18T07:51:00;98887.16;;;8.67;93.40
44148;BME280;29810;55.848;37.368;2022-10-18T07:54:02;98849.38;;;8.56;93.52
44148;BME280;29810;55.848;37.368;2022-10-18T07:57:04;98851.72;;;8.64;93.46
44148;BME280;29810;55.848;37.368;2022-10-18T08:00:06;98845.84;;;8.59;93.56
44148;BME280;29810;55.848;37.368;2022-10-18T08:03:12;98823.72;;;8.47;93.56
44148;BME280;29810;55.848;37.368;2022-10-18T08:06:16;98821.00;;;8.50;93.48
44148;BME280;29810;55.848;37.368;2022-10-18T08:09:18;98804.66;;;8.48;93.74
44148;BME280;29810;55.848;37.368;2022-10-18T08:12:20;98762.28;;;8.46;93.93
44148;BME280;29810;55.848;37.368;2022-10-18T08:15:22;98749.38;;;8.43;94.20
44148;BME280;29810;55.848;37.368;2022-10-18T08:18:25;98712.34;;;8.36;94.36
44148;BME280;29810;55.848;37.368;2022-10-18T08:21:27;98673.72;;;8.27;94.69
44148;BME280;29810;55.848;37.368;2022-10-18T08:24:29;98660.69;;;8.28;94.82
44148;BME280;29810;55.848;37.368;2022-10-18T08:27:30;98647.59;;;8.32;94.94
44148;BME280;29810;55.848;37.368;2022-10-18T08:30:33;98651.78;;;8.36;95.17
44148;BME280;29810;55.848;37.368;2022-10-18T08:33:35;98622.22;;;8.38;95.44
44148;BME280;29810;55.848;37.368;2022-10-18T08:36:37;98615.47;;;8.34;95.53
44148;BME280;29810;55.848;37.368;2022-10-18T08:39:38;98593.50;;;8.19;96.15
44148;BME280;29810;55.848;37.368;2022-10-18T08:46:20;98561.50;;;8.19;97.98
44148;BME280;29810;55.848;37.368;2022-10-18T08:49:59;98538.88;;;8.22;97.98
44148;BME280;29810;55.848;37.368;2022-10-18T08:53:57;98560.66;;;8.18;98.65
44148;BME280;29810;55.848;37.368;2022-10-18T08:56:32;98594.56;;;8.13;99.86
44148;BME280;29810;55.848;37.368;2022-10-18T08:59:38;98609.19;;;7.92;100.00
44148;BME280;29810;55.848;37.368;2022-10-18T09:06:18;98612.53;;;7.96;100.00
44148;BME280;29810;55.848;37.368;2022-10-18T09:09:45;98605.25;;;8.06;100.00
44148;BME280;29810;55.848;37.368;2022-10-18T09:16:02;98582.59;;;8.33;100.00
44148;BME280;29810;55.848;37.368;2022-10-18T09:22:29;98558.72;;;8.47;100.00
44148;BME280;29810;55.848;37.368;2022-10-18T09:25:47;98543.16;;;8.47;100.00
44148;BME280;29810;55.848;37.368;2022-10-18T09:28:58;98542.41;;;8.66;100.00
44148;BME280;29810;55.848;37.368;2022-10-18T09:32:33;98513.63;;;8.70;100.00
44148;BME280;29810;55.848;37.368;2022-10-18T09:35:48;98519.53;;;8.96;100.00
44148;BME280;29810;55.848;37.368;2022-10-18T09:38:59;98521.34;;;8.94;100.00
44148;BME280;29810;55.848;37.368;2022-10-18T09:42:07;98507.25;;;9.00;100.00
44148;BME280;29810;55.848;37.368;2022-10-18T09:45:15;98490.84;;;8.98;100.00
44148;BME280;29810;55.848;37.368;2022-10-18T09:48:27;98485.41;;;9.04;100.00
44148;BME280;29810;55.848;37.368;2022-10-18T09:51:37;98468.66;;;9.11;100.00
44148;BME280;29810;55.848;37.368;2022-10-18T09:54:48;98476.69;;;9.25;100.00
44148;BME280;29810;55.848;37.368;2022-10-18T09:57:59;98450.03;;;9.20;100.00
44148;BME280;29810;55.848;37.368;2022-10-18T10:01:02;98453.78;;;9.34;99.81
44148;BME280;29810;55.848;37.368;2022-10-18T10:04:04;98447.75;;;9.33;99.48
44148;BME280;29810;55.848;37.368;2022-10-18T10:07:10;98438.09;;;9.35;99.30
44148;BME280;29810;55.848;37.368;2022-10-18T10:10:16;98435.31;;;9.40;99.03
44148;BME280;29810;55.848;37.368;2022-10-18T10:13:24;98427.16;;;9.48;98.88
44148;BME280;29810;55.848;37.368;2022-10-18T10:16:28;98416.53;;;9.52;98.33
44148;BME280;29810;55.848;37.368;2022-10-18T10:19:33;98419.59;;;9.62;98.17
44148;BME280;29810;55.848;37.368;2022-10-18T10:22:39;98408.13;;;9.66;98.16
44148;BME280;29810;55.848;37.368;2022-10-18T10:25:41;98405.28;;;9.71;97.94
44148;BME280;29810;55.848;37.368;2022-10-18T10:28:44;98399.03;;;9.75;97.91
44148;BME280;29810;55.848;37.368;2022-10-18T10:32:01;98402.41;;;9.77;98.00
44148;BME280;29810;55.848;37.368;2022-10-18T10:35:22;98399.38;;;9.86;98.20
44148;BME280;29810;55.848;37.368;2022-10-18T10:38:25;98397.53;;;9.88;97.91
44148;BME280;29810;55.848;37.368;2022-10-18T10:41:27;98386.66;;;9.80;97.88
44148;BME280;29810;55.848;37.368;2022-10-18T10:44:31;98381.50;;;9.78;97.97
44148;BME280;29810;55.848;37.368;2022-10-18T10:47:35;98383.13;;;9.81;97.79
44148;BME280;29810;55.848;37.368;2022-10-18T10:50:53;98354.09;;;9.71;97.80
44148;BME280;29810;55.848;37.368;2022-10-18T10:54:16;98372.22;;;9.92;98.16
44148;BME280;29810;55.848;37.368;2022-10-18T10:57:27;98357.88;;;9.83;98.43
44148;BME280;29810;55.848;37.368;2022-10-18T11:03:33;98354.87;;;9.54;100.00
44148;BME280;29810;55.848;37.368;2022-10-18T11:16:41;98342.62;;;9.93;100.00
44148;BME280;29810;55.848;37.368;2022-10-18T11:19:54;98343.12;;;10.01;100.00
44148;BME280;29810;55.848;37.368;2022-10-18T11:23:02;98346.81;;;10.15;100.00
44148;BME280;29810;55.848;37.368;2022-10-18T11:35:45;98341.34;;;10.56;100.00
44148;BME280;29810;55.848;37.368;2022-10-18T11:42:42;98337.44;;;10.81;100.00
44148;BME280;29810;55.848;37.368;2022-10-18T11:46:05;98339.19;;;10.98;100.00
44148;BME280;29810;55.848;37.368;2022-10-18T11:59:28;98335.66;;;10.99;100.00
44148;BME280;29810;55.848;37.368;2022-10-18T12:03:00;98341.56;;;11.02;100.00
44148;BME280;29810;55.848;37.368;2022-10-18T12:06:18;98347.47;;;11.06;100.00
44148;BME280;29810;55.848;37.368;2022-10-18T12:09:39;98349.31;;;11.04;100.00
44148;BME280;29810;55.848;37.368;2022-10-18T12:12:49;98339.47;;;11.09;100.00
44148;BME280;29810;55.848;37.368;2022-10-18T12:15:53;98351.69;;;11.24;100.00
44148;BME280;29810;55.848;37.368;2022-10-18T12:19:02;98340.78;;;11.34;100.00
44148;BME280;29810;55.848;37.368;2022-10-18T12:22:13;98351.81;;;11.39;100.00
44148;BME280;29810;55.848;37.368;2022-10-18T12:25:22;98352.41;;;11.44;100.00
44148;BME280;29810;55.848;37.368;2022-10-18T12:32:10;98353.72;;;11.51;100.00
44148;BME280;29810;55.848;37.368;2022-10-18T12:35:17;98344.97;;;11.52;100.00
44148;BME280;29810;55.848;37.368;2022-10-18T12:38:22;98346.59;;;11.55;100.00
44148;BME280;29810;55.848;37.368;2022-10-18T12:41:29;98353.59;;;11.54;100.00
44148;BME280;29810;55.848;37.368;2022-10-18T12:44:33;98342.81;;;11.60;100.00
44148;BME280;29810;55.848;37.368;2022-10-18T12:47:35;98354.41;;;11.71;100.00
44148;BME280;29810;55.848;37.368;2022-10-18T12:50:39;98343.62;;;11.77;100.00
44148;BME280;29810;55.848;37.368;2022-10-18T12:53:44;98335.47;;;11.83;100.00
44148;BME280;29810;55.848;37.368;2022-10-18T12:56:46;98343.62;;;11.93;100.00
44148;BME280;29810;55.848;37.368;2022-10-18T12:59:51;98335.88;;;11.91;100.00
44148;BME280;29810;55.848;37.368;2022-10-18T13:06:13;98339.91;;;12.13;100.00
44148;BME280;29810;55.848;37.368;2022-10-18T13:09:18;98350.66;;;12.23;100.00
44148;BME280;29810;55.848;37.368;2022-10-18T13:26:50;98370.69;;;12.38;100.00
44148;BME280;29810;55.848;37.368;2022-10-18T13:33:24;98376.53;;;11.97;99.54
44148;BME280;29810;55.848;37.368;2022-10-18T13:36:31;98368.75;;;11.96;99.31
44148;BME280;29810;55.848;37.368;2022-10-18T13:39:33;98385.09;;;11.99;98.15
44148;BME280;29810;55.848;37.368;2022-10-18T13:42:34;98375.31;;;12.03;97.63
44148;BME280;29810;55.848;37.368;2022-10-18T13:45:43;98378.94;;;12.00;97.00
44148;BME280;29810;55.848;37.368;2022-10-18T13:48:58;98376.59;;;11.96;97.21
44148;BME280;29810;55.848;37.368;2022-10-18T13:55:37;98386.25;;;11.93;97.50
44148;BME280;29810;55.848;37.368;2022-10-18T14:09:10;98407.94;;;11.96;97.01
44148;BME280;29810;55.848;37.368;2022-10-18T14:15:23;98410.00;;;11.89;96.98
44148;BME280;29810;55.848;37.368;2022-10-18T14:18:31;98421.66;;;11.83;96.92
44148;BME280;29810;55.848;37.368;2022-10-18T14:21:37;98398.47;;;11.77;97.30
44148;BME280;29810;55.848;37.368;2022-10-18T14:24:44;98409.34;;;11.69;97.09
44148;BME280;29810;55.848;37.368;2022-10-18T14:27:47;98405.38;;;11.62;97.07
44148;BME280;29810;55.848;37.368;2022-10-18T14:33:59;98415.03;;;11.44;98.45
44148;BME280;29810;55.848;37.368;2022-10-18T14:37:01;98427.91;;;11.47;98.77
44148;BME280;29810;55.848;37.368;2022-10-18T14:40:03;98418.94;;;11.53;97.95
44148;BME280;29810;55.848;37.368;2022-10-18T14:43:11;98422.78;;;11.62;97.05
44148;BME280;29810;55.848;37.368;2022-10-18T14:46:23;98440.81;;;11.50;97.34
44148;BME280;29810;55.848;37.368;2022-10-18T14:49:27;98430.94;;;11.39;97.94
44148;BME280;29810;55.848;37.368;2022-10-18T14:52:32;98446.31;;;11.28;98.26
44148;BME280;29810;55.848;37.368;2022-10-18T14:55:34;98436.13;;;11.23;98.58
44148;BME280;29810;55.848;37.368;2022-10-18T14:58:40;98439.81;;;11.19;98.11
44148;BME280;29810;55.848;37.368;2022-10-18T15:01:52;98451.34;;;11.15;98.09
44148;BME280;29810;55.848;37.368;2022-10-18T15:08:17;98461.69;;;11.17;97.01
44148;BME280;29810;55.848;37.368;2022-10-18T15:11:19;98457.16;;;11.20;96.40
44148;BME280;29810;55.848;37.368;2022-10-18T15:14:24;98464.81;;;11.23;96.13
44148;BME280;29810;55.848;37.368;2022-10-18T15:17:29;98467.13;;;11.30;95.92
44148;BME280;29810;55.848;37.368;2022-10-18T15:20:36;98484.00;;;11.40;95.48
44148;BME280;29810;55.848;37.368;2022-10-18T15:23:42;98491.66;;;11.43;94.92
44148;BME280;29810;55.848;37.368;2022-10-18T15:26:49;98505.63;;;11.42;94.11
44148;BME280;29810;55.848;37.368;2022-10-18T15:29:51;98493.06;;;11.15;94.35
44148;BME280;29810;55.848;37.368;2022-10-18T15:32:56;98513.25;;;11.12;94.61
44148;BME280;29810;55.848;37.368;2022-10-18T15:36:07;98516.69;;;10.94;94.68
44148;BME280;29810;55.848;37.368;2022-10-18T15:39:15;98513.63;;;10.86;94.92
44148;BME280;29810;55.848;37.368;2022-10-18T15:42:36;98525.06;;;10.84;94.68
44148;BME280;29810;55.848;37.368;2022-10-18T15:45:45;98547.53;;;10.86;94.35
44148;BME280;29810;55.848;37.368;2022-10-18T15:48:47;98531.22;;;10.64;93.61
44148;BME280;29810;55.848;37.368;2022-10-18T15:58:46;98545.75;;;10.50;94.87
44148;BME280;29810;55.848;37.368;2022-10-18T16:01:48;98554.00;;;10.41;94.11
44148;BME280;29810;55.848;37.368;2022-10-18T16:04:51;98556.94;;;10.33;93.84
44148;BME280;29810;55.848;37.368;2022-10-18T16:07:54;98569.50;;;10.25;93.57
44148;BME280;29810;55.848;37.368;2022-10-18T16:10:57;98561.22;;;10.15;94.21
44148;BME280;29810;55.848;37.368;2022-10-18T16:13:59;98562.78;;;10.19;94.21
44148;BME280;29810;55.848;37.368;2022-10-18T16:17:04;98566.31;;;10.18;93.96
44148;BME280;29810;55.848;37.368;2022-10-18T16:20:14;98579.84;;;10.26;93.42
44148;BME280;29810;55.848;37.368;2022-10-18T16:23:21;98588.00;;;10.19;92.22
44148;BME280;29810;55.848;37.368;2022-10-18T16:26:24;98587.62;;;10.07;92.19
44148;BME280;29810;55.848;37.368;2022-10-18T16:29:26;98584.37;;;9.83;93.04
44148;BME280;29810;55.848;37.368;2022-10-18T16:32:32;98588.44;;;9.89;92.08
44148;BME280;29810;55.848;37.368;2022-10-18T16:35:36;98588.38;;;9.90;90.86
44148;BME280;29810;55.848;37.368;2022-10-18T16:38:38;98587.88;;;9.82;89.90
44148;BME280;29810;55.848;37.368;2022-10-18T16:41:41;98616.91;;;9.93;89.68
44148;BME280;29810;55.848;37.368;2022-10-18T16:44:42;98616.03;;;9.93;89.36
44148;BME280;29810;55.848;37.368;2022-10-18T16:47:47;98618.72;;;9.91;89.26
44148;BME280;29810;55.848;37.368;2022-10-18T16:50:49;98586.84;;;9.66;89.13
44148;BME280;29810;55.848;37.368;2022-10-18T16:53:53;98636.37;;;9.85;88.19
44148;BME280;29810;55.848;37.368;2022-10-18T16:56:54;98653.63;;;9.87;88.06
44148;BME280;29810;55.848;37.368;2022-10-18T16:59:58;98635.00;;;9.76;87.42
44148;BME280;29810;55.848;37.368;2022-10-18T17:02:59;98628.75;;;9.59;88.25
44148;BME280;29810;55.848;37.368;2022-10-18T17:06:02;98609.09;;;9.52;88.27
44148;BME280;29810;55.848;37.368;2022-10-18T17:09:04;98634.63;;;9.65;88.10
44148;BME280;29810;55.848;37.368;2022-10-18T17:12:07;98634.88;;;9.58;88.00
44148;BME280;29810;55.848;37.368;2022-10-18T17:15:09;98636.56;;;9.59;88.33
44148;BME280;29810;55.848;37.368;2022-10-18T17:18:16;98628.19;;;9.53;88.55
44148;BME280;29810;55.848;37.368;2022-10-18T17:21:18;98606.50;;;9.52;88.64
44148;BME280;29810;55.848;37.368;2022-10-18T17:24:20;98613.34;;;9.55;88.27
44148;BME280;29810;55.848;37.368;2022-10-18T17:27:44;98611.44;;;9.58;88.39
44148;BME280;29810;55.848;37.368;2022-10-18T17:30:46;98623.94;;;9.50;87.84
44148;BME280;29810;55.848;37.368;2022-10-18T17:33:48;98644.50;;;9.56;88.57
44148;BME280;29810;55.848;37.368;2022-10-18T17:36:50;98640.88;;;9.60;88.57
44148;BME280;29810;55.848;37.368;2022-10-18T17:39:52;98638.00;;;9.67;88.44
44148;BME280;29810;55.848;37.368;2022-10-18T17:42:55;98642.16;;;9.71;88.35
44148;BME280;29810;55.848;37.368;2022-10-18T17:45:56;98628.28;;;9.50;88.18
44148;BME280;29810;55.848;37.368;2022-10-18T17:49:01;98636.56;;;9.59;88.23
44148;BME280;29810;55.848;37.368;2022-10-18T17:52:05;98648.28;;;9.49;89.02
44148;BME280;29810;55.848;37.368;2022-10-18T17:55:09;98653.72;;;9.43;89.44
44148;BME280;29810;55.848;37.368;2022-10-18T17:58:11;98667.91;;;9.56;89.57
44148;BME280;29810;55.848;37.368;2022-10-18T18:01:18;98673.34;;;9.30;89.54
44148;BME280;29810;55.848;37.368;2022-10-18T18:04:21;98662.72;;;9.36;89.09
44148;BME280;29810;55.848;37.368;2022-10-18T18:07:24;98678.91;;;8.98;90.50
44148;BME280;29810;55.848;37.368;2022-10-18T18:10:27;98672.84;;;8.98;90.33
44148;BME280;29810;55.848;37.368;2022-10-18T18:13:29;98653.97;;;8.92;90.19
44148;BME280;29810;55.848;37.368;2022-10-18T18:16:31;98666.56;;;8.81;90.54
44148;BME280;29810;55.848;37.368;2022-10-18T18:19:33;98650.00;;;8.84;90.40
44148;BME280;29810;55.848;37.368;2022-10-18T18:22:35;98652.91;;;8.76;89.95
44148;BME280;29810;55.848;37.368;2022-10-18T18:25:38;98657.97;;;8.79;89.51
44148;BME280;29810;55.848;37.368;2022-10-18T18:28:42;98650.00;;;8.61;88.52
44148;BME280;29810;55.848;37.368;2022-10-18T18:31:43;98659.03;;;8.51;89.51